sensor_id;sensor_type;location;lat;lon;timestamp;pressure;altitude;pressure_sealevel;temperature;humidity
7168;BME280;3625;51.762;14.320;2023-04-27T00:00:07;100925.41;;;4.95;93.77
7168;BME280;3625;51.762;14.320;2023-04-27T00:02:39;100924.56;;;4.96;93.18
7168;BME280;3625;51.762;14.320;2023-04-27T00:05:08;100919.31;;;4.96;93.50
7168;BME280;3625;51.762;14.320;2023-04-27T00:07:38;100921.94;;;4.98;92.70
7168;BME280;3625;51.762;14.320;2023-04-27T00:10:08;100912.34;;;4.98;92.74
7168;BME280;3625;51.762;14.320;2023-04-27T00:12:37;100914.09;;;5.02;93.05
7168;BME280;3625;51.762;14.320;2023-04-27T00:15:13;100914.13;;;5.05;93.02
7168;BME280;3625;51.762;14.320;2023-04-27T00:17:43;100909.78;;;5.07;92.75
7168;BME280;3625;51.762;14.320;2023-04-27T00:20:12;100905.41;;;5.06;92.73
7168;BME280;3625;51.762;14.320;2023-04-27T00:22:41;100904.53;;;5.07;92.75
7168;BME280;3625;51.762;14.320;2023-04-27T00:25:10;100907.19;;;5.09;92.47
7168;BME280;3625;51.762;14.320;2023-04-27T00:27:39;100904.56;;;5.09;92.47
7168;BME280;3625;51.762;14.320;2023-04-27T00:30:09;100903.69;;;5.08;92.37
7168;BME280;3625;51.762;14.320;2023-04-27T00:32:38;100901.91;;;5.10;92.40
7168;BME280;3625;51.762;14.320;2023-04-27T00:35:10;100906.31;;;5.11;92.37
7168;BME280;3625;51.762;14.320;2023-04-27T00:37:41;100901.09;;;5.14;92.41
7168;BME280;3625;51.762;14.320;2023-04-27T00:40:10;100908.97;;;5.16;92.34
7168;BME280;3625;51.762;14.320;2023-04-27T00:42:39;100908.06;;;5.12;92.18
7168;BME280;3625;51.762;14.320;2023-04-27T00:45:09;100911.56;;;5.13;92.30
7168;BME280;3625;51.762;14.320;2023-04-27T00:47:39;100911.59;;;5.14;92.28
7168;BME280;3625;51.762;14.320;2023-04-27T00:50:11;100916.84;;;5.17;92.32
7168;BME280;3625;51.762;14.320;2023-04-27T00:52:40;100919.47;;;5.20;92.26
7168;BME280;3625;51.762;14.320;2023-04-27T00:55:09;100912.50;;;5.22;92.24
7168;BME280;3625;51.762;14.320;2023-04-27T00:57:39;100917.78;;;5.24;92.25
7168;BME280;3625;51.762;14.320;2023-04-27T01:00:11;100916.03;;;5.26;91.96
7168;BME280;3625;51.762;14.320;2023-04-27T01:02:40;100915.16;;;5.25;91.90
7168;BME280;3625;51.762;14.320;2023-04-27T01:05:11;100921.31;;;5.27;92.14
7168;BME280;3625;51.762;14.320;2023-04-27T01:07:41;100925.66;;;5.30;92.10
7168;BME280;3625;51.762;14.320;2023-04-27T01:10:10;100923.06;;;5.31;91.98
7168;BME280;3625;51.762;14.320;2023-04-27T01:12:39;100924.81;;;5.32;91.90
7168;BME280;3625;51.762;14.320;2023-04-27T01:15:09;100918.69;;;5.32;92.10
7168;BME280;3625;51.762;14.320;2023-04-27T01:17:38;100926.59;;;5.34;92.05
7168;BME280;3625;51.762;14.320;2023-04-27T01:20:08;100928.34;;;5.36;92.01
7168;BME280;3625;51.762;14.320;2023-04-27T01:22:39;100923.97;;;5.38;92.15
7168;BME280;3625;51.762;14.320;2023-04-27T01:25:10;100922.25;;;5.40;92.19
7168;BME280;3625;51.762;14.320;2023-04-27T01:27:39;100924.00;;;5.41;92.29
7168;BME280;3625;51.762;14.320;2023-04-27T01:30:08;100931.88;;;5.43;92.28
7168;BME280;3625;51.762;14.320;2023-04-27T01:32:37;100928.41;;;5.44;92.42
7168;BME280;3625;51.762;14.320;2023-04-27T01:35:06;100932.78;;;5.45;92.46
7168;BME280;3625;51.762;14.320;2023-04-27T01:37:35;100865.22;;;5.09;92.51
7168;BME280;3625;51.762;14.320;2023-04-27T01:40:06;100909.06;;;5.31;92.58
7168;BME280;3625;51.762;14.320;2023-04-27T01:42:36;100933.72;;;5.53;92.33
7168;BME280;3625;51.762;14.320;2023-04-27T01:45:09;100938.06;;;5.54;92.61
7168;BME280;3625;51.762;14.320;2023-04-27T01:47:38;100945.06;;;5.55;92.46
7168;BME280;3625;51.762;14.320;2023-04-27T01:50:08;100944.22;;;5.57;92.82
7168;BME280;3625;51.762;14.320;2023-04-27T01:52:38;100951.22;;;5.57;92.75
7168;BME280;3625;51.762;14.320;2023-04-27T01:55:08;100947.72;;;5.58;92.64
7168;BME280;3625;51.762;14.320;2023-04-27T01:57:39;100949.47;;;5.59;92.94
7168;BME280;3625;51.762;14.320;2023-04-27T02:00:08;100950.34;;;5.58;92.50
7168;BME280;3625;51.762;14.320;2023-04-27T02:02:52;100944.22;;;5.59;93.08
7168;BME280;3625;51.762;14.320;2023-04-27T02:05:24;100890.66;;;5.23;92.67
7168;BME280;3625;51.762;14.320;2023-04-27T02:07:54;100953.84;;;5.57;92.67
7168;BME280;3625;51.762;14.320;2023-04-27T02:10:23;100950.34;;;5.58;92.89
7168;BME280;3625;51.762;14.320;2023-04-27T02:12:56;100960.81;;;5.56;92.67
7168;BME280;3625;51.762;14.320;2023-04-27T02:15:25;100954.72;;;5.57;92.93
7168;BME280;3625;51.762;14.320;2023-04-27T02:17:54;100946.84;;;5.59;92.93
7168;BME280;3625;51.762;14.320;2023-04-27T02:20:23;100955.63;;;5.61;92.80
7168;BME280;3625;51.762;14.320;2023-04-27T02:22:53;100947.72;;;5.59;92.40
7168;BME280;3625;51.762;14.320;2023-04-27T02:25:25;100963.47;;;5.59;92.33
7168;BME280;3625;51.762;14.320;2023-04-27T02:27:56;100960.84;;;5.58;92.80
7168;BME280;3625;51.762;14.320;2023-04-27T02:30:25;100952.09;;;5.57;93.09
7168;BME280;3625;51.762;14.320;2023-04-27T02:32:58;100954.72;;;5.57;93.28
7168;BME280;3625;51.762;14.320;2023-04-27T02:35:27;100958.19;;;5.56;93.02
7168;BME280;3625;51.762;14.320;2023-04-27T02:37:59;100962.59;;;5.57;93.44
7168;BME280;3625;51.762;14.320;2023-04-27T02:40:28;100954.69;;;5.56;92.94
7168;BME280;3625;51.762;14.320;2023-04-27T02:42:58;100959.94;;;5.53;92.82
7168;BME280;3625;51.762;14.320;2023-04-27T02:45:27;100958.22;;;5.53;92.86
7168;BME280;3625;51.762;14.320;2023-04-27T02:47:57;100963.44;;;5.55;93.21
7168;BME280;3625;51.762;14.320;2023-04-27T02:50:26;100959.06;;;5.54;93.03
7168;BME280;3625;51.762;14.320;2023-04-27T02:52:55;100963.44;;;5.55;93.06
7168;BME280;3625;51.762;14.320;2023-04-27T02:55:26;100958.19;;;5.55;92.98
7168;BME280;3625;51.762;14.320;2023-04-27T02:57:58;100957.31;;;5.54;93.10
7168;BME280;3625;51.762;14.320;2023-04-27T03:00:27;100965.19;;;5.56;93.12
7168;BME280;3625;51.762;14.320;2023-04-27T03:02:56;100962.56;;;5.56;92.97
7168;BME280;3625;51.762;14.320;2023-04-27T03:05:27;100965.22;;;5.57;92.80
7168;BME280;3625;51.762;14.320;2023-04-27T03:07:58;100968.75;;;5.61;93.04
7168;BME280;3625;51.762;14.320;2023-04-27T03:10:30;100963.47;;;5.62;92.61
7168;BME280;3625;51.762;14.320;2023-04-27T03:13:04;100969.63;;;5.61;91.31
7168;BME280;3625;51.762;14.320;2023-04-27T03:15:34;100969.59;;;5.63;91.96
7168;BME280;3625;51.762;14.320;2023-04-27T03:18:03;100973.13;;;5.63;92.03
7168;BME280;3625;51.762;14.320;2023-04-27T03:20:33;100970.50;;;5.62;91.64
7168;BME280;3625;51.762;14.320;2023-04-27T03:23:02;100977.47;;;5.63;92.15
7168;BME280;3625;51.762;14.320;2023-04-27T03:25:31;100988.84;;;5.63;92.12
7168;BME280;3625;51.762;14.320;2023-04-27T03:28:01;100982.75;;;5.61;92.24
7168;BME280;3625;51.762;14.320;2023-04-27T03:30:33;100982.72;;;5.63;92.28
7168;BME280;3625;51.762;14.320;2023-04-27T03:33:02;100988.00;;;5.66;92.30
7168;BME280;3625;51.762;14.320;2023-04-27T03:35:31;100993.25;;;5.64;92.41
7168;BME280;3625;51.762;14.320;2023-04-27T03:38:01;100997.63;;;5.64;92.37
7168;BME280;3625;51.762;14.320;2023-04-27T03:40:31;101002.91;;;5.67;92.23
7168;BME280;3625;51.762;14.320;2023-04-27T03:43:02;101001.19;;;5.71;92.52
7168;BME280;3625;51.762;14.320;2023-04-27T03:45:32;101001.19;;;5.71;92.44
7168;BME280;3625;51.762;14.320;2023-04-27T03:48:01;100997.66;;;5.73;92.10
7168;BME280;3625;51.762;14.320;2023-04-27T03:50:30;101004.69;;;5.76;92.29
7168;BME280;3625;51.762;14.320;2023-04-27T03:53:00;101002.06;;;5.74;91.95
7168;BME280;3625;51.762;14.320;2023-04-27T03:55:29;101002.97;;;5.78;92.44
7168;BME280;3625;51.762;14.320;2023-04-27T03:57:58;101007.34;;;5.77;92.07
7168;BME280;3625;51.762;14.320;2023-04-27T04:00:43;101020.47;;;5.80;92.19
7168;BME280;3625;51.762;14.320;2023-04-27T04:03:46;101016.97;;;5.81;92.00
7168;BME280;3625;51.762;14.320;2023-04-27T04:06:18;101014.38;;;5.83;91.89
7168;BME280;3625;51.762;14.320;2023-04-27T04:08:47;101021.38;;;5.85;91.39
7168;BME280;3625;51.762;14.320;2023-04-27T04:11:16;101024.94;;;5.89;90.98
7168;BME280;3625;51.762;14.320;2023-04-27T04:13:45;101026.75;;;5.96;90.84
7168;BME280;3625;51.762;14.320;2023-04-27T04:16:16;101032.03;;;6.02;90.69
7168;BME280;3625;51.762;14.320;2023-04-27T04:18:46;101032.03;;;6.03;90.74
7168;BME280;3625;51.762;14.320;2023-04-27T04:21:15;101036.41;;;6.07;90.99
7168;BME280;3625;51.762;14.320;2023-04-27T04:23:44;101039.03;;;6.06;90.41
7168;BME280;3625;51.762;14.320;2023-04-27T04:26:13;101037.28;;;6.03;90.51
7168;BME280;3625;51.762;14.320;2023-04-27T04:28:42;101044.28;;;6.06;90.38
7168;BME280;3625;51.762;14.320;2023-04-27T04:31:12;101045.19;;;6.08;90.49
7168;BME280;3625;51.762;14.320;2023-04-27T04:33:45;101047.84;;;6.11;90.42
7168;BME280;3625;51.762;14.320;2023-04-27T04:36:15;101049.56;;;6.09;90.27
7168;BME280;3625;51.762;14.320;2023-04-27T04:38:44;101053.06;;;6.10;90.49
7168;BME280;3625;51.762;14.320;2023-04-27T04:41:17;101048.72;;;6.15;90.70
7168;BME280;3625;51.762;14.320;2023-04-27T04:43:46;101051.34;;;6.15;90.52
7168;BME280;3625;51.762;14.320;2023-04-27T04:46:17;101061.03;;;6.20;90.54
7168;BME280;3625;51.762;14.320;2023-04-27T04:48:47;101060.16;;;6.27;90.22
7168;BME280;3625;51.762;14.320;2023-04-27T04:51:20;101060.19;;;6.29;89.90
7168;BME280;3625;51.762;14.320;2023-04-27T04:53:49;101064.56;;;6.33;89.84
7168;BME280;3625;51.762;14.320;2023-04-27T04:56:18;101068.13;;;6.38;90.21
7168;BME280;3625;51.762;14.320;2023-04-27T04:58:47;101072.53;;;6.45;90.37
7168;BME280;3625;51.762;14.320;2023-04-27T05:01:16;101070.78;;;6.53;90.21
7168;BME280;3625;51.762;14.320;2023-04-27T05:03:47;101073.44;;;6.56;88.94
7168;BME280;3625;51.762;14.320;2023-04-27T05:06:16;101071.72;;;6.63;89.20
7168;BME280;3625;51.762;14.320;2023-04-27T05:08:45;101081.41;;;6.74;88.85
7168;BME280;3625;51.762;14.320;2023-04-27T05:11:13;101077.06;;;6.82;88.62
7168;BME280;3625;51.762;14.320;2023-04-27T05:13:42;101079.69;;;6.95;88.61
7168;BME280;3625;51.762;14.320;2023-04-27T05:16:11;101075.34;;;7.10;87.37
7168;BME280;3625;51.762;14.320;2023-04-27T05:18:41;101084.13;;;7.28;86.15
7168;BME280;3625;51.762;14.320;2023-04-27T05:21:15;101078.91;;;7.47;86.38
7168;BME280;3625;51.762;14.320;2023-04-27T05:23:47;101085.03;;;7.71;85.91
7168;BME280;3625;51.762;14.320;2023-04-27T05:26:16;101082.38;;;7.89;84.51
7168;BME280;3625;51.762;14.320;2023-04-27T05:28:47;101094.66;;;8.02;82.93
7168;BME280;3625;51.762;14.320;2023-04-27T05:31:16;101083.22;;;8.11;82.28
7168;BME280;3625;51.762;14.320;2023-04-27T05:33:45;101087.59;;;8.18;81.27
7168;BME280;3625;51.762;14.320;2023-04-27T05:36:16;101096.38;;;8.32;80.51
7168;BME280;3625;51.762;14.320;2023-04-27T05:38:44;101099.88;;;8.42;79.08
7168;BME280;3625;51.762;14.320;2023-04-27T05:41:13;101096.31;;;8.53;79.31
7168;BME280;3625;51.762;14.320;2023-04-27T05:43:42;101099.78;;;8.70;78.30
7168;BME280;3625;51.762;14.320;2023-04-27T05:46:13;101094.38;;;8.95;78.34
7168;BME280;3625;51.762;14.320;2023-04-27T05:48:42;101100.53;;;8.98;71.65
7168;BME280;3625;51.762;14.320;2023-04-27T05:51:11;101103.94;;;9.13;72.68
7168;BME280;3625;51.762;14.320;2023-04-27T05:53:41;101102.00;;;9.39;72.33
7168;BME280;3625;51.762;14.320;2023-04-27T05:56:10;101104.50;;;9.59;72.35
7168;BME280;3625;51.762;14.320;2023-04-27T05:58:39;101102.69;;;9.64;71.86
7168;BME280;3625;51.762;14.320;2023-04-27T06:01:08;101111.50;;;9.63;67.89
7168;BME280;3625;51.762;14.320;2023-04-27T06:03:37;101101.81;;;9.66;68.11
7168;BME280;3625;51.762;14.320;2023-04-27T06:06:06;101106.97;;;9.78;67.88
7168;BME280;3625;51.762;14.320;2023-04-27T06:08:35;101100.78;;;9.82;67.15
7168;BME280;3625;51.762;14.320;2023-04-27T06:11:07;101108.63;;;9.92;66.44
7168;BME280;3625;51.762;14.320;2023-04-27T06:13:36;101048.16;;;9.60;65.12
7168;BME280;3625;51.762;14.320;2023-04-27T06:16:05;101105.81;;;10.11;64.69
7168;BME280;3625;51.762;14.320;2023-04-27T06:18:34;101107.38;;;10.29;63.15
7168;BME280;3625;51.762;14.320;2023-04-27T06:21:03;101108.16;;;10.40;61.89
7168;BME280;3625;51.762;14.320;2023-04-27T06:23:33;101110.59;;;10.60;62.63
7168;BME280;3625;51.762;14.320;2023-04-27T06:26:02;101114.78;;;10.78;61.54
7168;BME280;3625;51.762;14.320;2023-04-27T06:28:33;101114.69;;;10.85;59.87
7168;BME280;3625;51.762;14.320;2023-04-27T06:31:02;101106.00;;;10.74;58.98
7168;BME280;3625;51.762;14.320;2023-04-27T06:33:31;101119.31;;;10.68;59.46
7168;BME280;3625;51.762;14.320;2023-04-27T06:36:00;101117.63;;;10.61;59.30
7168;BME280;3625;51.762;14.320;2023-04-27T06:38:29;101123.00;;;10.55;59.81
7168;BME280;3625;51.762;14.320;2023-04-27T06:40:58;101116.88;;;10.51;59.51
7168;BME280;3625;51.762;14.320;2023-04-27T06:43:27;101129.13;;;10.58;59.51
7168;BME280;3625;51.762;14.320;2023-04-27T06:45:57;101128.94;;;10.74;59.45
7168;BME280;3625;51.762;14.320;2023-04-27T06:48:26;101121.78;;;10.82;58.80
7168;BME280;3625;51.762;14.320;2023-04-27T06:50:55;101133.88;;;11.01;58.83
7168;BME280;3625;51.762;14.320;2023-04-27T06:53:23;101136.38;;;11.15;57.13
7168;BME280;3625;51.762;14.320;2023-04-27T06:55:54;101137.94;;;11.28;56.62
7168;BME280;3625;51.762;14.320;2023-04-27T06:58:22;101143.94;;;11.41;56.80
7168;BME280;3625;51.762;14.320;2023-04-27T07:00:51;101149.56;;;11.16;56.32
7168;BME280;3625;51.762;14.320;2023-04-27T07:03:21;101137.41;;;11.00;57.89
7168;BME280;3625;51.762;14.320;2023-04-27T07:05:50;101139.16;;;11.03;58.89
7168;BME280;3625;51.762;14.320;2023-04-27T07:08:19;101140.16;;;10.94;57.46
7168;BME280;3625;51.762;14.320;2023-04-27T07:10:48;101129.97;;;10.64;57.68
7168;BME280;3625;51.762;14.320;2023-04-27T07:13:17;101145.06;;;10.54;58.60
7168;BME280;3625;51.762;14.320;2023-04-27T07:15:46;101147.72;;;10.54;59.51
7168;BME280;3625;51.762;14.320;2023-04-27T07:18:15;101078.28;;;10.32;59.14
7168;BME280;3625;51.762;14.320;2023-04-27T07:20:45;101145.25;;;11.08;58.80
7168;BME280;3625;51.762;14.320;2023-04-27T07:23:14;101148.63;;;11.22;56.65
7168;BME280;3625;51.762;14.320;2023-04-27T07:25:42;101153.13;;;11.15;56.65
7168;BME280;3625;51.762;14.320;2023-04-27T07:28:11;101148.59;;;11.23;57.05
7168;BME280;3625;51.762;14.320;2023-04-27T07:30:41;101155.31;;;11.47;56.16
7168;BME280;3625;51.762;14.320;2023-04-27T07:33:10;101160.38;;;11.62;54.82
7168;BME280;3625;51.762;14.320;2023-04-27T07:35:39;101165.31;;;11.88;55.30
7168;BME280;3625;51.762;14.320;2023-04-27T07:38:09;101172.09;;;12.06;53.73
7168;BME280;3625;51.762;14.320;2023-04-27T07:40:38;101164.72;;;12.22;53.32
7168;BME280;3625;51.762;14.320;2023-04-27T07:43:10;101169.91;;;12.29;51.83
7168;BME280;3625;51.762;14.320;2023-04-27T07:45:39;101159.94;;;12.43;51.57
7168;BME280;3625;51.762;14.320;2023-04-27T07:48:08;101175.19;;;12.78;51.88
7168;BME280;3625;51.762;14.320;2023-04-27T07:50:37;101174.72;;;13.00;50.55
7168;BME280;3625;51.762;14.320;2023-04-27T07:53:06;101173.69;;;13.07;49.41
7168;BME280;3625;51.762;14.320;2023-04-27T07:55:36;101180.41;;;13.26;47.49
7168;BME280;3625;51.762;14.320;2023-04-27T07:58:05;101178.53;;;13.31;48.71
7168;BME280;3625;51.762;14.320;2023-04-27T08:00:34;101180.38;;;13.28;47.06
7168;BME280;3625;51.762;14.320;2023-04-27T08:03:03;101185.63;;;13.31;46.42
7168;BME280;3625;51.762;14.320;2023-04-27T08:05:32;101186.22;;;13.43;46.24
7168;BME280;3625;51.762;14.320;2023-04-27T08:08:01;101191.00;;;13.28;45.22
7168;BME280;3625;51.762;14.320;2023-04-27T08:10:31;101182.50;;;13.09;45.18
7168;BME280;3625;51.762;14.320;2023-04-27T08:13:01;101191.28;;;12.69;45.49
7168;BME280;3625;51.762;14.320;2023-04-27T08:15:30;101190.06;;;12.87;46.68
7168;BME280;3625;51.762;14.320;2023-04-27T08:17:59;101191.03;;;12.81;44.25
7168;BME280;3625;51.762;14.320;2023-04-27T08:20:28;101195.66;;;12.72;44.47
7168;BME280;3625;51.762;14.320;2023-04-27T08:22:56;101195.19;;;12.50;44.72
7168;BME280;3625;51.762;14.320;2023-04-27T08:25:25;101188.88;;;12.56;45.06
7168;BME280;3625;51.762;14.320;2023-04-27T08:27:54;101185.09;;;12.69;44.79
7168;BME280;3625;51.762;14.320;2023-04-27T08:30:24;101182.84;;;12.94;44.94
7168;BME280;3625;51.762;14.320;2023-04-27T08:32:53;101189.88;;;12.96;43.37
7168;BME280;3625;51.762;14.320;2023-04-27T08:35:22;101191.38;;;12.65;42.10
7168;BME280;3625;51.762;14.320;2023-04-27T08:37:50;101190.03;;;12.41;42.58
7168;BME280;3625;51.762;14.320;2023-04-27T08:40:20;101202.09;;;12.59;43.19
7168;BME280;3625;51.762;14.320;2023-04-27T08:42:55;101206.81;;;12.89;43.64
7168;BME280;3625;51.762;14.320;2023-04-27T08:45:27;101197.16;;;12.87;42.44
7168;BME280;3625;51.762;14.320;2023-04-27T08:47:56;101199.47;;;13.03;42.98
7168;BME280;3625;51.762;14.320;2023-04-27T08:50:25;101198.94;;;13.31;42.19
7168;BME280;3625;51.762;14.320;2023-04-27T08:52:53;101198.19;;;13.63;42.35
7168;BME280;3625;51.762;14.320;2023-04-27T08:55:22;101200.59;;;14.10;41.78
7168;BME280;3625;51.762;14.320;2023-04-27T08:57:55;101200.56;;;14.47;41.13
7168;BME280;3625;51.762;14.320;2023-04-27T09:00:26;101197.78;;;14.84;40.73
7168;BME280;3625;51.762;14.320;2023-04-27T09:03:05;101203.44;;;14.72;40.11
7168;BME280;3625;51.762;14.320;2023-04-27T09:05:34;101199.38;;;14.59;40.21
7168;BME280;3625;51.762;14.320;2023-04-27T09:08:05;101193.41;;;14.49;40.64
7168;BME280;3625;51.762;14.320;2023-04-27T09:10:44;101184.38;;;14.19;41.12
7168;BME280;3625;51.762;14.320;2023-04-27T09:13:13;101185.38;;;14.17;41.94
7168;BME280;3625;51.762;14.320;2023-04-27T09:15:45;101187.41;;;14.41;42.03
7168;BME280;3625;51.762;14.320;2023-04-27T09:18:16;101195.59;;;14.67;41.78
7168;BME280;3625;51.762;14.320;2023-04-27T09:20:47;101191.91;;;14.38;40.97
7168;BME280;3625;51.762;14.320;2023-04-27T09:23:35;101193.66;;;14.05;40.89
7168;BME280;3625;51.762;14.320;2023-04-27T09:26:06;101190.44;;;13.92;41.23
7168;BME280;3625;51.762;14.320;2023-04-27T09:28:37;101185.25;;;14.20;41.51
7168;BME280;3625;51.762;14.320;2023-04-27T09:31:09;101178.81;;;14.30;41.87
7168;BME280;3625;51.762;14.320;2023-04-27T09:33:38;101152.59;;;14.15;41.78
7168;BME280;3625;51.762;14.320;2023-04-27T09:36:07;101191.63;;;14.14;41.28
7168;BME280;3625;51.762;14.320;2023-04-27T09:38:36;101185.16;;;13.89;41.59
7168;BME280;3625;51.762;14.320;2023-04-27T09:41:05;101187.13;;;13.81;40.92
7168;BME280;3625;51.762;14.320;2023-04-27T09:43:35;101190.28;;;13.96;41.12
7168;BME280;3625;51.762;14.320;2023-04-27T09:46:04;101190.91;;;14.08;41.23
7168;BME280;3625;51.762;14.320;2023-04-27T09:48:37;101182.34;;;14.30;41.20
7168;BME280;3625;51.762;14.320;2023-04-27T09:51:06;101183.41;;;14.59;40.73
7168;BME280;3625;51.762;14.320;2023-04-27T09:53:37;101178.44;;;14.78;40.37
7168;BME280;3625;51.762;14.320;2023-04-27T09:56:19;101192.97;;;14.66;40.53
7168;BME280;3625;51.762;14.320;2023-04-27T09:59:09;101192.09;;;14.65;40.03
7168;BME280;3625;51.762;14.320;2023-04-27T10:01:45;101183.88;;;14.73;40.08
7168;BME280;3625;51.762;14.320;2023-04-27T10:04:28;101182.13;;;14.72;39.33
7168;BME280;3625;51.762;14.320;2023-04-27T10:07:01;101177.25;;;14.88;39.66
7168;BME280;3625;51.762;14.320;2023-04-27T10:09:35;101108.56;;;14.35;39.64
7168;BME280;3625;51.762;14.320;2023-04-27T10:12:16;101176.59;;;15.10;39.86
7168;BME280;3625;51.762;14.320;2023-04-27T10:14:50;101180.00;;;15.45;38.64
7168;BME280;3625;51.762;14.320;2023-04-27T10:17:24;101176.25;;;15.51;37.76
7168;BME280;3625;51.762;14.320;2023-04-27T10:20:02;101185.97;;;15.53;37.77
7168;BME280;3625;51.762;14.320;2023-04-27T10:22:38;101173.13;;;15.66;38.40
7168;BME280;3625;51.762;14.320;2023-04-27T10:25:18;101183.47;;;16.04;37.07
7168;BME280;3625;51.762;14.320;2023-04-27T10:27:49;101179.34;;;15.94;36.58
7168;BME280;3625;51.762;14.320;2023-04-27T10:30:21;101185.75;;;15.89;35.63
7168;BME280;3625;51.762;14.320;2023-04-27T10:32:51;101179.16;;;15.43;35.97
7168;BME280;3625;51.762;14.320;2023-04-27T10:35:31;101185.78;;;15.00;36.99
7168;BME280;3625;51.762;14.320;2023-04-27T10:38:05;101178.22;;;14.85;37.21
7168;BME280;3625;51.762;14.320;2023-04-27T10:40:35;101173.63;;;14.90;36.64
7168;BME280;3625;51.762;14.320;2023-04-27T10:43:08;101168.28;;;14.90;37.03
7168;BME280;3625;51.762;14.320;2023-04-27T10:45:37;101177.97;;;15.24;36.56
7168;BME280;3625;51.762;14.320;2023-04-27T10:48:07;101163.41;;;15.35;36.47
7168;BME280;3625;51.762;14.320;2023-04-27T10:50:37;101171.81;;;15.51;36.26
7168;BME280;3625;51.762;14.320;2023-04-27T10:53:07;101174.78;;;15.40;35.81
7168;BME280;3625;51.762;14.320;2023-04-27T10:55:36;101171.22;;;15.12;35.95
7168;BME280;3625;51.762;14.320;2023-04-27T10:58:05;101165.34;;;15.01;35.75
7168;BME280;3625;51.762;14.320;2023-04-27T11:00:37;101161.53;;;15.09;36.94
7168;BME280;3625;51.762;14.320;2023-04-27T11:03:13;101165.19;;;15.35;36.82
7168;BME280;3625;51.762;14.320;2023-04-27T11:05:58;101166.72;;;15.73;35.67
7168;BME280;3625;51.762;14.320;2023-04-27T11:08:30;101166.00;;;15.66;34.88
7168;BME280;3625;51.762;14.320;2023-04-27T11:11:06;101162.44;;;15.08;35.88
7168;BME280;3625;51.762;14.320;2023-04-27T11:13:38;101160.66;;;14.46;37.05
7168;BME280;3625;51.762;14.320;2023-04-27T11:16:10;101157.41;;;14.34;37.82
7168;BME280;3625;51.762;14.320;2023-04-27T11:18:39;101149.84;;;14.84;38.04
7168;BME280;3625;51.762;14.320;2023-04-27T11:21:13;101167.91;;;15.33;36.41
7168;BME280;3625;51.762;14.320;2023-04-27T11:23:42;101170.84;;;15.55;35.00
7168;BME280;3625;51.762;14.320;2023-04-27T11:26:12;101166.56;;;16.04;35.14
7168;BME280;3625;51.762;14.320;2023-04-27T11:28:43;101166.94;;;16.44;34.34
7168;BME280;3625;51.762;14.320;2023-04-27T11:31:14;101162.66;;;16.90;34.25
7168;BME280;3625;51.762;14.320;2023-04-27T11:33:49;101169.50;;;16.74;33.73
7168;BME280;3625;51.762;14.320;2023-04-27T11:36:21;101168.63;;;15.96;34.27
7168;BME280;3625;51.762;14.320;2023-04-27T11:38:50;101160.03;;;15.30;35.33
7168;BME280;3625;51.762;14.320;2023-04-27T11:41:18;101162.09;;;14.90;36.22
7168;BME280;3625;51.762;14.320;2023-04-27T11:43:47;101149.78;;;14.86;35.78
7168;BME280;3625;51.762;14.320;2023-04-27T11:46:19;101166.63;;;15.17;36.49
7168;BME280;3625;51.762;14.320;2023-04-27T11:48:49;101162.97;;;15.21;35.36
7168;BME280;3625;51.762;14.320;2023-04-27T11:51:20;101170.88;;;15.23;35.72
7168;BME280;3625;51.762;14.320;2023-04-27T11:53:52;101173.75;;;15.17;35.41
7168;BME280;3625;51.762;14.320;2023-04-27T11:56:21;101170.09;;;14.90;35.55
7168;BME280;3625;51.762;14.320;2023-04-27T11:58:49;101146.75;;;14.34;36.13
7168;BME280;3625;51.762;14.320;2023-04-27T12:01:18;101177.16;;;13.90;36.77
7168;BME280;3625;51.762;14.320;2023-04-27T12:04:03;101172.56;;;13.58;37.40
7168;BME280;3625;51.762;14.320;2023-04-27T12:06:33;101173.56;;;13.54;37.81
7168;BME280;3625;51.762;14.320;2023-04-27T12:09:02;101179.59;;;13.63;37.75
7168;BME280;3625;51.762;14.320;2023-04-27T12:11:32;101173.50;;;13.94;37.66
7168;BME280;3625;51.762;14.320;2023-04-27T12:14:01;101177.81;;;14.34;37.32
7168;BME280;3625;51.762;14.320;2023-04-27T12:16:30;101173.13;;;14.78;36.76
7168;BME280;3625;51.762;14.320;2023-04-27T12:18:59;101180.53;;;14.66;35.94
7168;BME280;3625;51.762;14.320;2023-04-27T12:21:28;101176.16;;;14.28;36.83
7168;BME280;3625;51.762;14.320;2023-04-27T12:24:00;101181.97;;;14.10;37.24
7168;BME280;3625;51.762;14.320;2023-04-27T12:26:28;101179.41;;;14.07;36.83
7168;BME280;3625;51.762;14.320;2023-04-27T12:28:57;101172.53;;;14.32;37.14
7168;BME280;3625;51.762;14.320;2023-04-27T12:31:26;101185.97;;;14.94;36.53
7168;BME280;3625;51.762;14.320;2023-04-27T12:33:55;101188.81;;;15.18;34.62
7168;BME280;3625;51.762;14.320;2023-04-27T12:36:24;101189.75;;;15.17;33.00
7168;BME280;3625;51.762;14.320;2023-04-27T12:38:56;101192.78;;;15.04;33.27
7168;BME280;3625;51.762;14.320;2023-04-27T12:41:26;101182.38;;;15.25;33.67
7168;BME280;3625;51.762;14.320;2023-04-27T12:43:55;101192.41;;;15.17;34.26
7168;BME280;3625;51.762;14.320;2023-04-27T12:46:24;101194.25;;;15.44;34.69
7168;BME280;3625;51.762;14.320;2023-04-27T12:48:53;101195.63;;;15.57;33.45
7168;BME280;3625;51.762;14.320;2023-04-27T12:51:23;101183.34;;;14.93;34.57
7168;BME280;3625;51.762;14.320;2023-04-27T12:53:52;101189.63;;;14.90;34.44
7168;BME280;3625;51.762;14.320;2023-04-27T12:56:21;101178.25;;;14.84;35.22
7168;BME280;3625;51.762;14.320;2023-04-27T12:58:51;101179.84;;;15.22;35.28
7168;BME280;3625;51.762;14.320;2023-04-27T13:01:20;101180.75;;;15.21;35.02
7168;BME280;3625;51.762;14.320;2023-04-27T13:03:52;101184.28;;;14.59;34.16
7168;BME280;3625;51.762;14.320;2023-04-27T13:06:21;101186.03;;;14.25;34.68
7168;BME280;3625;51.762;14.320;2023-04-27T13:08:50;101172.16;;;14.12;35.33
7168;BME280;3625;51.762;14.320;2023-04-27T13:11:19;101181.50;;;14.28;35.54
7168;BME280;3625;51.762;14.320;2023-04-27T13:13:48;101178.09;;;14.23;35.29
7168;BME280;3625;51.762;14.320;2023-04-27T13:16:18;101181.09;;;14.10;35.66
7168;BME280;3625;51.762;14.320;2023-04-27T13:18:49;101181.59;;;14.25;35.71
7168;BME280;3625;51.762;14.320;2023-04-27T13:21:18;101176.78;;;14.06;35.58